»·PEaware :: N73YZ L71-KSNA

N73YZ :: L71-KSNA

FLIGHT INFORMATION

Flight Status: Arrived
Operator: Privately registered:
United States
More flights under this callsign
Pilot: William K. (10629)
Aircraft: CESSNA 210 CENTURION
(C210)
More flights by this aircraft type
Origin: L71 California City Mun
United States
Destination: KSNA John Wayne-Orange Co
United States
More flights between these airports :: More routes between these airports
Route: +PMD V201 BERRI V459 SLI
File this flight plan on PilotEdge
Remarks:
Altitude:
(Current/Filed)
9,000ft
Speed:
(Current/Filed)
170kts
Departed: 21-Nov-16 02:26 PM
Arrived: 21-Nov-16 03:12 PM
Distance/Time
Traveled:
89nm/0:46
Distance/Time
To Go:
Arrived

Flight Plot

Page will automatically refresh every two minutes.

Flight plan parsing failed; only flown route is shown


Map Options




Map Legend


Flown Route
Filed Route
Departure Airport
Arrival Airport
Navaid (VOR, NDB)
Fix

Horizontal Profiles

Position Reports

Time Latitude Longitude Heading Altitude Ground
Speed
21-Nov-16 14:06 35.153270 -118.007105 255 2439ft 0kts
21-Nov-16 14:07 35.153270 -118.007105 255 2439ft 0kts
21-Nov-16 14:08 35.153270 -118.007105 255 2439ft 0kts
21-Nov-16 14:09 35.153270 -118.007105 255 2439ft 0kts
21-Nov-16 14:10 35.153270 -118.007105 255 2439ft 0kts
21-Nov-16 14:11 35.153270 -118.007105 255 2439ft 0kts
21-Nov-16 14:12 35.153270 -118.007105 255 2439ft 0kts
21-Nov-16 14:13 35.153270 -118.007105 255 2439ft 0kts
21-Nov-16 14:14 35.153270 -118.007105 255 2439ft 0kts
21-Nov-16 14:15 35.153270 -118.007105 255 2439ft 0kts
21-Nov-16 14:16 35.153270 -118.007105 255 2439ft 0kts
21-Nov-16 14:17 35.153270 -118.007105 255 2439ft 0kts
21-Nov-16 14:18 35.153270 -118.007105 255 2439ft 0kts
21-Nov-16 14:19 35.152921 -118.008758 254 2439ft 44kts
21-Nov-16 14:20 35.146389 -118.029872 254 3142ft 80kts
21-Nov-16 14:21 35.122609 -118.038529 187 3960ft 116kts
21-Nov-16 14:22 35.089824 -118.038619 189 4759ft 119kts
21-Nov-16 14:23 35.056071 -118.039723 190 5561ft 123kts
21-Nov-16 14:24 35.021846 -118.041285 190 6358ft 125kts
21-Nov-16 14:25 34.987281 -118.043085 190 7153ft 126kts
21-Nov-16 14:26 34.952820 -118.045048 191 7937ft 127kts
21-Nov-16 14:27 34.917391 -118.047111 191 8665ft 134kts
21-Nov-16 14:28 34.877147 -118.049578 190 8962ft 162kts
21-Nov-16 14:29 34.833082 -118.052110 190 8969ft 167kts
21-Nov-16 14:30 34.796371 -118.054208 190 8976ft 168kts
21-Nov-16 14:31 34.750709 -118.056865 190 8985ft 169kts
21-Nov-16 14:33 34.705504 -118.059502 190 8994ft 170kts
21-Nov-16 14:34 34.658075 -118.062263 190 8996ft 171kts
21-Nov-16 14:35 34.611554 -118.068150 206 8998ft 164kts
21-Nov-16 14:36 34.572004 -118.093237 219 8999ft 159kts
21-Nov-16 14:37 34.531659 -118.117061 211 8998ft 162kts
21-Nov-16 14:38 34.491852 -118.138228 211 8999ft 163kts
21-Nov-16 14:39 34.459900 -118.155221 211 9001ft 164kts
21-Nov-16 14:40 34.429141 -118.171602 211 9003ft 165kts
21-Nov-16 14:40 34.402931 -118.185528 211 9006ft 166kts
21-Nov-16 14:42 34.364456 -118.205957 210 9005ft 166kts
21-Nov-16 14:42 34.335782 -118.221161 210 9002ft 165kts
21-Nov-16 14:43 34.300363 -118.239932 209 8997ft 163kts
21-Nov-16 14:44 34.261759 -118.260379 209 8990ft 159kts
21-Nov-16 14:45 34.223435 -118.280631 208 8956ft 150kts
21-Nov-16 14:46 34.188918 -118.299413 208 8261ft 145kts
21-Nov-16 14:47 34.154442 -118.293003 151 7529ft 155kts
21-Nov-16 14:48 34.120998 -118.267935 154 6980ft 158kts
21-Nov-16 14:49 34.085363 -118.243808 156 6985ft 159kts
21-Nov-16 14:50 34.049544 -118.220686 157 6987ft 161kts
21-Nov-16 14:51 34.016907 -118.200058 157 6989ft 164kts
21-Nov-16 14:52 33.989821 -118.183090 157 6990ft 167kts
21-Nov-16 14:53 33.951805 -118.159360 155 6989ft 171kts
21-Nov-16 14:54 33.913961 -118.135724 154 6963ft 168kts
21-Nov-16 14:55 33.876633 -118.112676 154 6256ft 166kts
21-Nov-16 14:56 33.842702 -118.091620 154 5608ft 164kts
21-Nov-16 14:57 33.804920 -118.068137 155 4898ft 160kts
21-Nov-16 14:58 33.767705 -118.045042 156 4229ft 156kts
21-Nov-16 14:59 33.753470 -118.005093 101 3661ft 160kts
21-Nov-16 15:00 33.746383 -117.958938 101 3049ft 157kts
21-Nov-16 15:01 33.740269 -117.913343 101 2521ft 156kts
21-Nov-16 15:02 33.732669 -117.865195 117 1772ft 148kts
21-Nov-16 15:03 33.704281 -117.850746 195 614ft 100kts
21-Nov-16 15:04 33.684343 -117.863177 211 158ft 80kts
21-Nov-16 15:05 33.674577 -117.868561 165 60ft 3kts
21-Nov-16 15:06 33.674407 -117.868482 143 60ft 0kts
21-Nov-16 15:07 33.672134 -117.867762 222 60ft 0kts
21-Nov-16 15:08 33.672134 -117.867762 222 60ft 0kts

Navigation Log

Ident Type
Flight plan parsing failed, navigation log unavailable